sensor_id;sensor_type;location;lat;lon;timestamp;P1;durP1;ratioP1;P2;durP2;ratioP2
41255;SDS011;26989;45.524;10.938;2023-03-01T00:01:12;27.98;;;15.30;;
41255;SDS011;26989;45.524;10.938;2023-03-01T00:03:41;27.05;;;14.10;;
41255;SDS011;26989;45.524;10.938;2023-03-01T00:06:09;25.23;;;14.23;;
41255;SDS011;26989;45.524;10.938;2023-03-01T00:08:36;29.33;;;13.85;;
41255;SDS011;26989;45.524;10.938;2023-03-01T00:11:04;30.85;;;14.25;;
41255;SDS011;26989;45.524;10.938;2023-03-01T00:13:55;28.48;;;14.98;;
41255;SDS011;26989;45.524;10.938;2023-03-01T00:16:26;29.90;;;15.30;;
41255;SDS011;26989;45.524;10.938;2023-03-01T00:18:57;27.75;;;14.82;;
41255;SDS011;26989;45.524;10.938;2023-03-01T00:21:24;27.13;;;14.45;;
41255;SDS011;26989;45.524;10.938;2023-03-01T00:23:53;26.08;;;14.63;;
41255;SDS011;26989;45.524;10.938;2023-03-01T00:26:21;30.05;;;15.43;;
41255;SDS011;26989;45.524;10.938;2023-03-01T00:28:49;29.25;;;15.35;;
41255;SDS011;26989;45.524;10.938;2023-03-01T00:31:20;26.67;;;14.27;;
41255;SDS011;26989;45.524;10.938;2023-03-01T00:33:48;27.08;;;14.30;;
41255;SDS011;26989;45.524;10.938;2023-03-01T00:36:19;27.45;;;15.15;;
41255;SDS011;26989;45.524;10.938;2023-03-01T00:38:46;26.05;;;14.30;;
41255;SDS011;26989;45.524;10.938;2023-03-01T00:41:14;29.65;;;15.13;;
41255;SDS011;26989;45.524;10.938;2023-03-01T00:43:42;28.67;;;14.35;;
41255;SDS011;26989;45.524;10.938;2023-03-01T00:46:20;28.33;;;15.52;;
41255;SDS011;26989;45.524;10.938;2023-03-01T00:48:49;24.70;;;15.13;;
41255;SDS011;26989;45.524;10.938;2023-03-01T00:51:17;27.75;;;14.52;;
41255;SDS011;26989;45.524;10.938;2023-03-01T00:53:46;28.42;;;13.75;;
41255;SDS011;26989;45.524;10.938;2023-03-01T00:56:15;29.00;;;15.10;;
41255;SDS011;26989;45.524;10.938;2023-03-01T00:58:42;28.20;;;14.88;;
41255;SDS011;26989;45.524;10.938;2023-03-01T01:01:10;28.65;;;14.65;;
41255;SDS011;26989;45.524;10.938;2023-03-01T01:03:47;27.33;;;14.27;;
41255;SDS011;26989;45.524;10.938;2023-03-01T01:06:25;28.30;;;14.43;;
41255;SDS011;26989;45.524;10.938;2023-03-01T01:08:54;31.17;;;14.60;;
41255;SDS011;26989;45.524;10.938;2023-03-01T01:11:22;31.73;;;15.00;;
41255;SDS011;26989;45.524;10.938;2023-03-01T01:13:50;28.20;;;15.43;;
41255;SDS011;26989;45.524;10.938;2023-03-01T01:16:18;27.33;;;13.73;;
41255;SDS011;26989;45.524;10.938;2023-03-01T01:18:46;26.38;;;14.18;;
41255;SDS011;26989;45.524;10.938;2023-03-01T01:21:14;27.90;;;13.65;;
41255;SDS011;26989;45.524;10.938;2023-03-01T01:23:43;28.90;;;14.82;;
41255;SDS011;26989;45.524;10.938;2023-03-01T01:26:12;25.83;;;14.35;;
41255;SDS011;26989;45.524;10.938;2023-03-01T01:28:44;27.35;;;14.02;;
41255;SDS011;26989;45.524;10.938;2023-03-01T01:31:11;28.08;;;14.40;;
41255;SDS011;26989;45.524;10.938;2023-03-01T01:33:38;28.00;;;14.98;;
41255;SDS011;26989;45.524;10.938;2023-03-01T01:36:06;25.90;;;14.23;;
41255;SDS011;26989;45.524;10.938;2023-03-01T01:38:34;29.85;;;14.07;;
41255;SDS011;26989;45.524;10.938;2023-03-01T01:41:01;29.95;;;14.85;;
41255;SDS011;26989;45.524;10.938;2023-03-01T01:43:29;34.20;;;15.65;;
41255;SDS011;26989;45.524;10.938;2023-03-01T01:46:30;28.65;;;13.75;;
41255;SDS011;26989;45.524;10.938;2023-03-01T01:49:03;27.73;;;14.82;;
41255;SDS011;26989;45.524;10.938;2023-03-01T01:54:37;25.52;;;14.63;;
41255;SDS011;26989;45.524;10.938;2023-03-01T01:57:16;31.17;;;16.02;;
41255;SDS011;26989;45.524;10.938;2023-03-01T01:59:48;29.48;;;15.73;;
41255;SDS011;26989;45.524;10.938;2023-03-01T02:02:18;30.30;;;15.88;;
41255;SDS011;26989;45.524;10.938;2023-03-01T02:04:46;30.40;;;15.68;;
41255;SDS011;26989;45.524;10.938;2023-03-01T02:07:17;33.08;;;14.98;;
41255;SDS011;26989;45.524;10.938;2023-03-01T02:09:47;34.85;;;15.93;;
41255;SDS011;26989;45.524;10.938;2023-03-01T02:12:16;31.50;;;14.85;;
41255;SDS011;26989;45.524;10.938;2023-03-01T02:14:45;32.10;;;15.02;;
41255;SDS011;26989;45.524;10.938;2023-03-01T02:17:12;32.20;;;16.35;;
41255;SDS011;26989;45.524;10.938;2023-03-01T02:19:52;32.00;;;16.05;;
41255;SDS011;26989;45.524;10.938;2023-03-01T02:22:22;27.35;;;14.38;;
41255;SDS011;26989;45.524;10.938;2023-03-01T02:27:19;31.50;;;15.00;;
41255;SDS011;26989;45.524;10.938;2023-03-01T02:29:50;28.05;;;13.63;;
41255;SDS011;26989;45.524;10.938;2023-03-01T02:32:17;27.88;;;14.85;;
41255;SDS011;26989;45.524;10.938;2023-03-01T02:34:52;30.75;;;14.50;;
41255;SDS011;26989;45.524;10.938;2023-03-01T02:37:21;32.92;;;16.33;;
41255;SDS011;26989;45.524;10.938;2023-03-01T02:39:55;36.13;;;16.88;;
41255;SDS011;26989;45.524;10.938;2023-03-01T02:42:30;34.03;;;16.35;;
41255;SDS011;26989;45.524;10.938;2023-03-01T02:45:02;31.00;;;16.13;;
41255;SDS011;26989;45.524;10.938;2023-03-01T02:47:29;31.25;;;14.68;;
41255;SDS011;26989;45.524;10.938;2023-03-01T02:49:56;28.30;;;15.23;;
41255;SDS011;26989;45.524;10.938;2023-03-01T02:57:26;32.80;;;15.82;;
41255;SDS011;26989;45.524;10.938;2023-03-01T02:59:54;29.33;;;14.55;;
41255;SDS011;26989;45.524;10.938;2023-03-01T03:02:24;27.13;;;15.57;;
41255;SDS011;26989;45.524;10.938;2023-03-01T03:05:03;27.38;;;13.95;;
41255;SDS011;26989;45.524;10.938;2023-03-01T03:07:35;27.25;;;14.70;;
41255;SDS011;26989;45.524;10.938;2023-03-01T03:10:03;30.90;;;15.57;;
41255;SDS011;26989;45.524;10.938;2023-03-01T03:12:32;31.45;;;15.95;;
41255;SDS011;26989;45.524;10.938;2023-03-01T03:14:59;28.73;;;15.63;;
41255;SDS011;26989;45.524;10.938;2023-03-01T03:17:26;32.25;;;15.85;;
41255;SDS011;26989;45.524;10.938;2023-03-01T03:19:53;30.15;;;16.83;;
41255;SDS011;26989;45.524;10.938;2023-03-01T03:22:19;32.47;;;15.52;;
41255;SDS011;26989;45.524;10.938;2023-03-01T03:24:46;33.35;;;16.40;;
41255;SDS011;26989;45.524;10.938;2023-03-01T03:27:13;33.55;;;16.15;;
41255;SDS011;26989;45.524;10.938;2023-03-01T03:29:40;25.65;;;13.43;;
41255;SDS011;26989;45.524;10.938;2023-03-01T03:32:07;33.17;;;16.20;;
41255;SDS011;26989;45.524;10.938;2023-03-01T03:34:33;34.40;;;17.35;;
41255;SDS011;26989;45.524;10.938;2023-03-01T03:37:00;33.17;;;15.65;;
41255;SDS011;26989;45.524;10.938;2023-03-01T03:39:27;31.50;;;15.95;;
41255;SDS011;26989;45.524;10.938;2023-03-01T03:41:55;27.73;;;13.73;;
41255;SDS011;26989;45.524;10.938;2023-03-01T03:44:21;27.40;;;13.57;;
41255;SDS011;26989;45.524;10.938;2023-03-01T03:46:48;31.02;;;15.70;;
41255;SDS011;26989;45.524;10.938;2023-03-01T03:49:15;31.42;;;14.63;;
41255;SDS011;26989;45.524;10.938;2023-03-01T03:51:42;33.90;;;15.70;;
41255;SDS011;26989;45.524;10.938;2023-03-01T03:54:11;35.42;;;15.75;;
41255;SDS011;26989;45.524;10.938;2023-03-01T03:56:38;29.67;;;16.30;;
41255;SDS011;26989;45.524;10.938;2023-03-01T03:59:06;32.58;;;16.90;;
41255;SDS011;26989;45.524;10.938;2023-03-01T04:01:32;30.10;;;14.88;;
41255;SDS011;26989;45.524;10.938;2023-03-01T04:03:59;29.70;;;15.85;;
41255;SDS011;26989;45.524;10.938;2023-03-01T04:08:58;34.28;;;15.23;;
41255;SDS011;26989;45.524;10.938;2023-03-01T04:11:28;29.98;;;15.52;;
41255;SDS011;26989;45.524;10.938;2023-03-01T04:13:57;31.30;;;15.18;;
41255;SDS011;26989;45.524;10.938;2023-03-01T04:16:25;29.45;;;15.02;;
41255;SDS011;26989;45.524;10.938;2023-03-01T04:18:52;36.20;;;16.52;;
41255;SDS011;26989;45.524;10.938;2023-03-01T04:21:19;29.33;;;15.52;;
41255;SDS011;26989;45.524;10.938;2023-03-01T04:23:46;28.23;;;13.20;;
41255;SDS011;26989;45.524;10.938;2023-03-01T04:26:13;33.58;;;15.93;;
41255;SDS011;26989;45.524;10.938;2023-03-01T04:28:41;30.02;;;14.90;;
41255;SDS011;26989;45.524;10.938;2023-03-01T04:31:12;25.25;;;13.38;;
41255;SDS011;26989;45.524;10.938;2023-03-01T04:33:47;27.45;;;15.23;;
41255;SDS011;26989;45.524;10.938;2023-03-01T04:36:18;27.58;;;14.48;;
41255;SDS011;26989;45.524;10.938;2023-03-01T04:38:47;28.25;;;15.38;;
41255;SDS011;26989;45.524;10.938;2023-03-01T04:41:15;26.83;;;14.45;;
41255;SDS011;26989;45.524;10.938;2023-03-01T04:43:44;32.38;;;15.68;;
41255;SDS011;26989;45.524;10.938;2023-03-01T04:46:12;31.23;;;15.88;;
41255;SDS011;26989;45.524;10.938;2023-03-01T04:48:43;27.13;;;15.48;;
41255;SDS011;26989;45.524;10.938;2023-03-01T04:51:11;31.63;;;15.60;;
41255;SDS011;26989;45.524;10.938;2023-03-01T04:53:39;28.38;;;15.27;;
41255;SDS011;26989;45.524;10.938;2023-03-01T04:56:07;30.10;;;15.68;;
41255;SDS011;26989;45.524;10.938;2023-03-01T04:58:34;34.03;;;17.10;;
41255;SDS011;26989;45.524;10.938;2023-03-01T05:01:01;38.45;;;14.95;;
41255;SDS011;26989;45.524;10.938;2023-03-01T05:03:49;33.30;;;16.13;;
41255;SDS011;26989;45.524;10.938;2023-03-01T05:06:17;30.55;;;15.80;;
41255;SDS011;26989;45.524;10.938;2023-03-01T05:08:45;29.30;;;15.50;;
41255;SDS011;26989;45.524;10.938;2023-03-01T05:11:12;31.00;;;16.15;;
41255;SDS011;26989;45.524;10.938;2023-03-01T05:13:39;30.48;;;15.77;;
41255;SDS011;26989;45.524;10.938;2023-03-01T05:16:07;26.48;;;15.10;;
41255;SDS011;26989;45.524;10.938;2023-03-01T05:18:38;30.63;;;15.55;;
41255;SDS011;26989;45.524;10.938;2023-03-01T05:21:10;26.15;;;14.98;;
41255;SDS011;26989;45.524;10.938;2023-03-01T05:23:39;85.75;;;36.85;;
41255;SDS011;26989;45.524;10.938;2023-03-01T05:26:07;267.85;;;87.30;;
41255;SDS011;26989;45.524;10.938;2023-03-01T05:28:52;52.28;;;23.65;;
41255;SDS011;26989;45.524;10.938;2023-03-01T05:31:25;29.30;;;16.42;;
41255;SDS011;26989;45.524;10.938;2023-03-01T05:33:52;27.52;;;15.40;;
41255;SDS011;26989;45.524;10.938;2023-03-01T05:36:19;32.78;;;16.73;;
41255;SDS011;26989;45.524;10.938;2023-03-01T05:38:46;32.58;;;14.35;;
41255;SDS011;26989;45.524;10.938;2023-03-01T05:41:13;31.58;;;14.40;;
41255;SDS011;26989;45.524;10.938;2023-03-01T05:43:41;29.33;;;16.05;;
41255;SDS011;26989;45.524;10.938;2023-03-01T05:46:11;25.95;;;14.57;;
41255;SDS011;26989;45.524;10.938;2023-03-01T05:48:39;31.63;;;15.25;;
41255;SDS011;26989;45.524;10.938;2023-03-01T05:51:06;32.35;;;16.70;;
41255;SDS011;26989;45.524;10.938;2023-03-01T05:53:33;37.53;;;17.52;;
41255;SDS011;26989;45.524;10.938;2023-03-01T05:56:02;33.25;;;15.93;;
41255;SDS011;26989;45.524;10.938;2023-03-01T05:58:30;29.13;;;16.83;;
41255;SDS011;26989;45.524;10.938;2023-03-01T06:00:57;35.60;;;16.60;;
41255;SDS011;26989;45.524;10.938;2023-03-01T06:03:23;35.05;;;18.40;;
41255;SDS011;26989;45.524;10.938;2023-03-01T06:05:55;32.25;;;17.23;;
41255;SDS011;26989;45.524;10.938;2023-03-01T06:08:22;30.52;;;17.25;;
41255;SDS011;26989;45.524;10.938;2023-03-01T06:10:50;34.55;;;18.15;;
41255;SDS011;26989;45.524;10.938;2023-03-01T06:13:17;31.80;;;17.48;;
41255;SDS011;26989;45.524;10.938;2023-03-01T06:15:44;29.65;;;18.30;;
41255;SDS011;26989;45.524;10.938;2023-03-01T06:18:10;35.80;;;17.98;;
41255;SDS011;26989;45.524;10.938;2023-03-01T06:20:37;32.20;;;16.60;;
41255;SDS011;26989;45.524;10.938;2023-03-01T06:23:04;34.40;;;17.55;;
41255;SDS011;26989;45.524;10.938;2023-03-01T06:25:31;34.17;;;17.52;;
41255;SDS011;26989;45.524;10.938;2023-03-01T06:27:58;31.73;;;16.33;;
41255;SDS011;26989;45.524;10.938;2023-03-01T06:30:26;34.03;;;18.30;;
41255;SDS011;26989;45.524;10.938;2023-03-01T06:32:52;38.40;;;18.27;;
41255;SDS011;26989;45.524;10.938;2023-03-01T06:35:26;40.05;;;18.77;;
41255;SDS011;26989;45.524;10.938;2023-03-01T06:37:56;33.78;;;18.80;;
41255;SDS011;26989;45.524;10.938;2023-03-01T06:40:24;36.35;;;18.77;;
41255;SDS011;26989;45.524;10.938;2023-03-01T06:42:51;41.45;;;20.23;;
41255;SDS011;26989;45.524;10.938;2023-03-01T06:45:18;34.65;;;18.90;;
41255;SDS011;26989;45.524;10.938;2023-03-01T06:47:46;37.65;;;18.55;;
41255;SDS011;26989;45.524;10.938;2023-03-01T06:50:14;34.38;;;18.45;;
41255;SDS011;26989;45.524;10.938;2023-03-01T06:52:41;41.28;;;19.00;;
41255;SDS011;26989;45.524;10.938;2023-03-01T06:55:10;32.33;;;17.83;;
41255;SDS011;26989;45.524;10.938;2023-03-01T06:57:37;31.83;;;17.48;;
41255;SDS011;26989;45.524;10.938;2023-03-01T07:00:04;37.33;;;18.80;;
41255;SDS011;26989;45.524;10.938;2023-03-01T07:02:33;33.38;;;17.20;;
41255;SDS011;26989;45.524;10.938;2023-03-01T07:05:00;32.80;;;18.00;;
41255;SDS011;26989;45.524;10.938;2023-03-01T07:07:26;35.72;;;18.25;;
41255;SDS011;26989;45.524;10.938;2023-03-01T07:09:53;32.95;;;18.55;;
41255;SDS011;26989;45.524;10.938;2023-03-01T07:12:20;35.47;;;18.13;;
41255;SDS011;26989;45.524;10.938;2023-03-01T07:14:47;36.03;;;18.75;;
41255;SDS011;26989;45.524;10.938;2023-03-01T07:17:14;33.72;;;18.95;;
41255;SDS011;26989;45.524;10.938;2023-03-01T07:19:41;37.50;;;21.58;;
41255;SDS011;26989;45.524;10.938;2023-03-01T07:22:07;38.85;;;19.45;;
41255;SDS011;26989;45.524;10.938;2023-03-01T07:24:35;36.53;;;18.52;;
41255;SDS011;26989;45.524;10.938;2023-03-01T07:27:02;31.10;;;18.67;;
41255;SDS011;26989;45.524;10.938;2023-03-01T07:29:29;37.05;;;19.50;;
41255;SDS011;26989;45.524;10.938;2023-03-01T07:31:56;33.70;;;18.35;;
41255;SDS011;26989;45.524;10.938;2023-03-01T07:34:23;35.13;;;18.90;;
41255;SDS011;26989;45.524;10.938;2023-03-01T07:36:50;35.63;;;19.20;;
41255;SDS011;26989;45.524;10.938;2023-03-01T07:39:20;36.45;;;18.20;;
41255;SDS011;26989;45.524;10.938;2023-03-01T07:41:49;35.45;;;17.80;;
41255;SDS011;26989;45.524;10.938;2023-03-01T07:44:16;40.13;;;18.45;;
41255;SDS011;26989;45.524;10.938;2023-03-01T07:46:43;33.75;;;19.00;;
41255;SDS011;26989;45.524;10.938;2023-03-01T07:49:10;36.25;;;18.30;;
41255;SDS011;26989;45.524;10.938;2023-03-01T07:51:37;34.53;;;18.58;;
41255;SDS011;26989;45.524;10.938;2023-03-01T07:54:04;35.70;;;19.08;;
41255;SDS011;26989;45.524;10.938;2023-03-01T07:56:31;31.60;;;18.80;;
41255;SDS011;26989;45.524;10.938;2023-03-01T07:58:58;32.67;;;18.65;;
41255;SDS011;26989;45.524;10.938;2023-03-01T08:01:25;31.90;;;17.02;;
41255;SDS011;26989;45.524;10.938;2023-03-01T08:03:52;32.58;;;17.65;;
41255;SDS011;26989;45.524;10.938;2023-03-01T08:06:19;34.63;;;18.98;;
41255;SDS011;26989;45.524;10.938;2023-03-01T08:08:46;31.15;;;17.85;;
41255;SDS011;26989;45.524;10.938;2023-03-01T08:11:13;36.28;;;19.13;;
41255;SDS011;26989;45.524;10.938;2023-03-01T08:13:42;34.35;;;19.05;;
41255;SDS011;26989;45.524;10.938;2023-03-01T08:16:11;36.95;;;19.55;;
41255;SDS011;26989;45.524;10.938;2023-03-01T08:18:39;38.38;;;20.17;;
41255;SDS011;26989;45.524;10.938;2023-03-01T08:21:07;36.20;;;20.48;;
41255;SDS011;26989;45.524;10.938;2023-03-01T08:23:36;34.45;;;19.83;;
41255;SDS011;26989;45.524;10.938;2023-03-01T08:26:08;36.40;;;20.38;;
41255;SDS011;26989;45.524;10.938;2023-03-01T08:28:38;34.80;;;19.65;;
41255;SDS011;26989;45.524;10.938;2023-03-01T08:33:56;29.83;;;19.33;;
41255;SDS011;26989;45.524;10.938;2023-03-01T08:36:26;36.40;;;19.25;;
41255;SDS011;26989;45.524;10.938;2023-03-01T08:38:55;40.90;;;19.77;;
41255;SDS011;26989;45.524;10.938;2023-03-01T08:41:22;34.17;;;17.63;;
41255;SDS011;26989;45.524;10.938;2023-03-01T08:43:49;32.53;;;18.85;;
41255;SDS011;26989;45.524;10.938;2023-03-01T08:46:16;34.15;;;19.23;;
41255;SDS011;26989;45.524;10.938;2023-03-01T08:48:43;31.48;;;18.20;;
41255;SDS011;26989;45.524;10.938;2023-03-01T08:51:11;35.47;;;18.27;;
41255;SDS011;26989;45.524;10.938;2023-03-01T08:53:45;38.00;;;19.05;;
41255;SDS011;26989;45.524;10.938;2023-03-01T08:56:12;35.80;;;18.48;;
41255;SDS011;26989;45.524;10.938;2023-03-01T08:58:39;35.53;;;19.17;;
41255;SDS011;26989;45.524;10.938;2023-03-01T09:01:10;33.92;;;18.10;;
41255;SDS011;26989;45.524;10.938;2023-03-01T09:03:37;37.05;;;18.80;;
41255;SDS011;26989;45.524;10.938;2023-03-01T09:06:05;30.88;;;17.40;;
41255;SDS011;26989;45.524;10.938;2023-03-01T09:08:34;32.42;;;18.60;;
41255;SDS011;26989;45.524;10.938;2023-03-01T09:11:05;28.83;;;16.50;;
41255;SDS011;26989;45.524;10.938;2023-03-01T09:13:34;32.60;;;17.65;;
41255;SDS011;26989;45.524;10.938;2023-03-01T09:16:02;30.25;;;18.52;;
41255;SDS011;26989;45.524;10.938;2023-03-01T09:18:30;29.05;;;17.65;;
41255;SDS011;26989;45.524;10.938;2023-03-01T09:21:16;28.33;;;17.58;;
41255;SDS011;26989;45.524;10.938;2023-03-01T09:23:56;38.72;;;21.05;;
41255;SDS011;26989;45.524;10.938;2023-03-01T09:26:23;34.72;;;18.17;;
41255;SDS011;26989;45.524;10.938;2023-03-01T09:28:52;30.33;;;18.23;;
41255;SDS011;26989;45.524;10.938;2023-03-01T09:31:20;35.42;;;20.35;;
41255;SDS011;26989;45.524;10.938;2023-03-01T09:33:48;39.72;;;20.13;;
41255;SDS011;26989;45.524;10.938;2023-03-01T09:36:18;33.03;;;19.33;;
41255;SDS011;26989;45.524;10.938;2023-03-01T09:38:47;33.97;;;18.77;;
41255;SDS011;26989;45.524;10.938;2023-03-01T09:43:45;32.13;;;18.40;;
41255;SDS011;26989;45.524;10.938;2023-03-01T09:46:14;35.25;;;19.67;;
41255;SDS011;26989;45.524;10.938;2023-03-01T09:48:57;30.83;;;18.73;;
41255;SDS011;26989;45.524;10.938;2023-03-01T09:51:31;29.67;;;18.02;;
41255;SDS011;26989;45.524;10.938;2023-03-01T09:54:00;30.13;;;16.98;;
41255;SDS011;26989;45.524;10.938;2023-03-01T09:59:38;32.63;;;17.30;;
41255;SDS011;26989;45.524;10.938;2023-03-01T10:08:06;25.10;;;14.75;;
41255;SDS011;26989;45.524;10.938;2023-03-01T10:11:03;24.70;;;15.38;;
41255;SDS011;26989;45.524;10.938;2023-03-01T10:16:16;29.88;;;18.05;;
41255;SDS011;26989;45.524;10.938;2023-03-01T10:18:50;47.63;;;22.88;;
41255;SDS011;26989;45.524;10.938;2023-03-01T10:21:20;39.40;;;22.35;;
41255;SDS011;26989;45.524;10.938;2023-03-01T10:23:49;43.03;;;22.33;;
41255;SDS011;26989;45.524;10.938;2023-03-01T10:26:35;40.53;;;22.67;;
41255;SDS011;26989;45.524;10.938;2023-03-01T10:29:10;34.40;;;21.08;;
41255;SDS011;26989;45.524;10.938;2023-03-01T10:31:40;32.17;;;21.27;;
41255;SDS011;26989;45.524;10.938;2023-03-01T10:34:11;38.47;;;21.40;;
41255;SDS011;26989;45.524;10.938;2023-03-01T10:36:50;38.60;;;20.52;;
41255;SDS011;26989;45.524;10.938;2023-03-01T10:44:39;33.92;;;20.33;;
41255;SDS011;26989;45.524;10.938;2023-03-01T10:47:31;40.22;;;21.13;;
41255;SDS011;26989;45.524;10.938;2023-03-01T10:50:02;34.38;;;19.45;;
41255;SDS011;26989;45.524;10.938;2023-03-01T10:52:37;35.53;;;19.80;;
41255;SDS011;26989;45.524;10.938;2023-03-01T10:57:49;38.58;;;19.67;;
41255;SDS011;26989;45.524;10.938;2023-03-01T11:05:24;36.58;;;20.77;;
41255;SDS011;26989;45.524;10.938;2023-03-01T11:07:55;39.53;;;21.25;;
41255;SDS011;26989;45.524;10.938;2023-03-01T11:10:27;43.72;;;21.50;;
41255;SDS011;26989;45.524;10.938;2023-03-01T11:15:42;35.15;;;20.95;;
41255;SDS011;26989;45.524;10.938;2023-03-01T11:18:24;39.97;;;20.88;;
41255;SDS011;26989;45.524;10.938;2023-03-01T11:21:11;39.97;;;22.33;;
41255;SDS011;26989;45.524;10.938;2023-03-01T11:23:39;35.58;;;20.40;;
41255;SDS011;26989;45.524;10.938;2023-03-01T11:26:08;36.55;;;21.05;;
41255;SDS011;26989;45.524;10.938;2023-03-01T11:28:38;40.05;;;22.02;;
41255;SDS011;26989;45.524;10.938;2023-03-01T11:31:08;35.97;;;21.80;;
41255;SDS011;26989;45.524;10.938;2023-03-01T11:33:43;31.48;;;19.25;;
41255;SDS011;26989;45.524;10.938;2023-03-01T11:36:30;32.58;;;18.55;;
41255;SDS011;26989;45.524;10.938;2023-03-01T11:39:07;33.33;;;19.80;;
41255;SDS011;26989;45.524;10.938;2023-03-01T11:41:40;32.20;;;18.75;;
41255;SDS011;26989;45.524;10.938;2023-03-01T11:44:11;31.20;;;17.33;;
41255;SDS011;26989;45.524;10.938;2023-03-01T11:49:39;26.48;;;16.15;;
41255;SDS011;26989;45.524;10.938;2023-03-01T11:53:18;28.35;;;16.42;;
41255;SDS011;26989;45.524;10.938;2023-03-01T11:58:27;29.20;;;16.27;;
41255;SDS011;26989;45.524;10.938;2023-03-01T12:12:05;19.80;;;13.40;;
41255;SDS011;26989;45.524;10.938;2023-03-01T12:15:04;18.88;;;12.00;;
41255;SDS011;26989;45.524;10.938;2023-03-01T12:23:23;17.88;;;11.18;;
41255;SDS011;26989;45.524;10.938;2023-03-01T12:26:18;25.75;;;13.93;;
41255;SDS011;26989;45.524;10.938;2023-03-01T12:45:12;12.02;;;6.28;;
41255;SDS011;26989;45.524;10.938;2023-03-01T12:50:52;13.40;;;6.15;;
41255;SDS011;26989;45.524;10.938;2023-03-01T12:53:22;25.10;;;12.38;;
41255;SDS011;26989;45.524;10.938;2023-03-01T12:55:55;23.17;;;12.40;;
41255;SDS011;26989;45.524;10.938;2023-03-01T13:09:50;15.98;;;7.25;;
41255;SDS011;26989;45.524;10.938;2023-03-01T13:17:49;9.35;;;6.13;;
41255;SDS011;26989;45.524;10.938;2023-03-01T13:20:20;7.65;;;5.03;;
41255;SDS011;26989;45.524;10.938;2023-03-01T13:22:59;13.85;;;6.82;;
41255;SDS011;26989;45.524;10.938;2023-03-01T13:25:29;13.02;;;6.03;;
41255;SDS011;26989;45.524;10.938;2023-03-01T13:33:53;15.93;;;6.18;;
41255;SDS011;26989;45.524;10.938;2023-03-01T13:46:39;15.70;;;5.82;;
41255;SDS011;26989;45.524;10.938;2023-03-01T13:49:09;11.27;;;5.28;;
41255;SDS011;26989;45.524;10.938;2023-03-01T13:51:40;13.93;;;5.72;;
41255;SDS011;26989;45.524;10.938;2023-03-01T13:54:11;10.23;;;4.90;;
41255;SDS011;26989;45.524;10.938;2023-03-01T13:56:40;10.95;;;5.38;;
41255;SDS011;26989;45.524;10.938;2023-03-01T13:59:14;15.98;;;7.75;;
41255;SDS011;26989;45.524;10.938;2023-03-01T14:01:43;14.85;;;7.72;;
41255;SDS011;26989;45.524;10.938;2023-03-01T14:04:21;11.25;;;5.60;;
41255;SDS011;26989;45.524;10.938;2023-03-01T14:06:51;11.93;;;5.68;;
41255;SDS011;26989;45.524;10.938;2023-03-01T14:09:34;14.88;;;7.20;;
41255;SDS011;26989;45.524;10.938;2023-03-01T14:15:02;11.10;;;6.07;;
41255;SDS011;26989;45.524;10.938;2023-03-01T14:17:40;11.07;;;6.10;;
41255;SDS011;26989;45.524;10.938;2023-03-01T14:20:19;13.90;;;7.20;;
41255;SDS011;26989;45.524;10.938;2023-03-01T14:22:57;11.73;;;5.90;;
41255;SDS011;26989;45.524;10.938;2023-03-01T14:25:27;10.82;;;5.05;;
41255;SDS011;26989;45.524;10.938;2023-03-01T14:30:38;17.88;;;9.60;;
41255;SDS011;26989;45.524;10.938;2023-03-01T14:33:24;18.98;;;6.07;;
41255;SDS011;26989;45.524;10.938;2023-03-01T14:36:08;13.48;;;6.00;;
41255;SDS011;26989;45.524;10.938;2023-03-01T14:38:40;11.68;;;6.18;;
41255;SDS011;26989;45.524;10.938;2023-03-01T14:41:09;13.63;;;6.00;;
41255;SDS011;26989;45.524;10.938;2023-03-01T14:43:39;11.63;;;5.30;;
41255;SDS011;26989;45.524;10.938;2023-03-01T14:49:41;10.20;;;5.15;;
41255;SDS011;26989;45.524;10.938;2023-03-01T14:51:54;16.08;;;5.97;;
41255;SDS011;26989;45.524;10.938;2023-03-01T14:54:27;15.60;;;7.65;;
41255;SDS011;26989;45.524;10.938;2023-03-01T14:57:12;14.07;;;5.88;;
41255;SDS011;26989;45.524;10.938;2023-03-01T14:59:42;11.45;;;5.78;;
41255;SDS011;26989;45.524;10.938;2023-03-01T15:02:12;10.32;;;5.60;;
41255;SDS011;26989;45.524;10.938;2023-03-01T15:04:49;14.80;;;6.60;;
41255;SDS011;26989;45.524;10.938;2023-03-01T15:07:19;10.30;;;4.72;;
41255;SDS011;26989;45.524;10.938;2023-03-01T15:09:46;15.68;;;6.78;;
41255;SDS011;26989;45.524;10.938;2023-03-01T15:14:56;12.68;;;6.47;;
41255;SDS011;26989;45.524;10.938;2023-03-01T15:20:03;12.98;;;6.03;;
41255;SDS011;26989;45.524;10.938;2023-03-01T15:22:33;8.65;;;4.45;;
41255;SDS011;26989;45.524;10.938;2023-03-01T15:25:01;5.32;;;3.00;;
41255;SDS011;26989;45.524;10.938;2023-03-01T15:27:28;11.32;;;3.55;;
41255;SDS011;26989;45.524;10.938;2023-03-01T15:29:55;8.63;;;4.13;;
41255;SDS011;26989;45.524;10.938;2023-03-01T15:32:32;12.43;;;5.28;;
41255;SDS011;26989;45.524;10.938;2023-03-01T15:37:48;12.90;;;5.95;;
41255;SDS011;26989;45.524;10.938;2023-03-01T15:42:59;18.77;;;6.97;;
41255;SDS011;26989;45.524;10.938;2023-03-01T15:45:28;11.98;;;6.05;;
41255;SDS011;26989;45.524;10.938;2023-03-01T15:47:57;17.02;;;8.57;;
41255;SDS011;26989;45.524;10.938;2023-03-01T15:50:28;22.58;;;11.65;;
41255;SDS011;26989;45.524;10.938;2023-03-01T15:52:59;18.85;;;8.30;;
41255;SDS011;26989;45.524;10.938;2023-03-01T15:55:28;15.02;;;6.70;;
41255;SDS011;26989;45.524;10.938;2023-03-01T16:00:39;23.52;;;12.18;;
41255;SDS011;26989;45.524;10.938;2023-03-01T16:03:23;23.23;;;11.60;;
41255;SDS011;26989;45.524;10.938;2023-03-01T16:05:50;20.63;;;9.68;;
41255;SDS011;26989;45.524;10.938;2023-03-01T16:08:17;13.98;;;7.03;;
41255;SDS011;26989;45.524;10.938;2023-03-01T16:10:45;18.35;;;8.73;;
41255;SDS011;26989;45.524;10.938;2023-03-01T16:13:14;20.13;;;10.60;;
41255;SDS011;26989;45.524;10.938;2023-03-01T16:15:41;19.85;;;8.82;;
41255;SDS011;26989;45.524;10.938;2023-03-01T16:18:08;8.98;;;5.57;;
41255;SDS011;26989;45.524;10.938;2023-03-01T16:20:37;8.52;;;5.90;;
41255;SDS011;26989;45.524;10.938;2023-03-01T16:23:05;17.80;;;9.60;;
41255;SDS011;26989;45.524;10.938;2023-03-01T16:25:36;11.82;;;6.72;;
41255;SDS011;26989;45.524;10.938;2023-03-01T16:28:03;14.90;;;7.20;;
41255;SDS011;26989;45.524;10.938;2023-03-01T16:30:35;17.70;;;7.20;;
41255;SDS011;26989;45.524;10.938;2023-03-01T16:33:04;18.60;;;9.10;;
41255;SDS011;26989;45.524;10.938;2023-03-01T16:35:54;16.02;;;8.45;;
41255;SDS011;26989;45.524;10.938;2023-03-01T16:38:22;15.90;;;8.65;;
41255;SDS011;26989;45.524;10.938;2023-03-01T16:40:49;18.83;;;9.55;;
41255;SDS011;26989;45.524;10.938;2023-03-01T16:43:17;16.10;;;8.02;;
41255;SDS011;26989;45.524;10.938;2023-03-01T16:45:44;17.15;;;9.07;;
41255;SDS011;26989;45.524;10.938;2023-03-01T16:48:12;16.08;;;9.10;;
41255;SDS011;26989;45.524;10.938;2023-03-01T16:50:39;23.70;;;11.52;;
41255;SDS011;26989;45.524;10.938;2023-03-01T16:53:06;17.77;;;9.07;;